sensor_id;sensor_type;location;lat;lon;timestamp;pressure;altitude;pressure_sealevel;temperature;humidity
5877;BME280;2964;42.144;24.730;2023-02-28T00:00:40;144110.06;;;10.15;90.99
5877;BME280;2964;42.144;24.730;2023-02-28T00:03:08;144161.59;;;10.36;90.06
5877;BME280;2964;42.144;24.730;2023-02-28T00:05:35;144156.56;;;10.34;89.98
5877;BME280;2964;42.144;24.730;2023-02-28T00:08:01;144052.31;;;9.91;91.42
5877;BME280;2964;42.144;24.730;2023-02-28T00:10:30;144008.38;;;9.73;92.80
5877;BME280;2964;42.144;24.730;2023-02-28T00:13:00;144029.72;;;9.82;92.35
5877;BME280;2964;42.144;24.730;2023-02-28T00:15:27;144038.50;;;9.85;91.43
5877;BME280;2964;42.144;24.730;2023-02-28T00:17:56;144127.66;;;10.22;90.38
5877;BME280;2964;42.144;24.730;2023-02-28T00:20:23;144141.47;;;10.28;90.01
5877;BME280;2964;42.144;24.730;2023-02-28T00:22:51;144143.97;;;10.29;90.18
5877;BME280;2964;42.144;24.730;2023-02-28T00:25:20;144189.22;;;10.47;89.12
5877;BME280;2964;42.144;24.730;2023-02-28T00:27:48;144138.94;;;10.27;89.93
5877;BME280;2964;42.144;24.730;2023-02-28T00:30:16;144091.25;;;10.07;88.93
5877;BME280;2964;42.144;24.730;2023-02-28T00:32:43;144108.78;;;10.14;90.45
5877;BME280;2964;42.144;24.730;2023-02-28T00:35:11;144083.69;;;10.04;91.98
5877;BME280;2964;42.144;24.730;2023-02-28T00:37:38;144068.66;;;9.98;91.73
5877;BME280;2964;42.144;24.730;2023-02-28T00:40:06;144030.97;;;9.82;93.03
5877;BME280;2964;42.144;24.730;2023-02-28T00:42:35;144224.41;;;10.61;89.26
5877;BME280;2964;42.144;24.730;2023-02-28T00:45:02;144116.34;;;10.17;89.64
5877;BME280;2964;42.144;24.730;2023-02-28T00:47:29;144187.97;;;10.47;89.05
5877;BME280;2964;42.144;24.730;2023-02-28T00:49:56;144103.78;;;10.12;90.85
5877;BME280;2964;42.144;24.730;2023-02-28T00:52:24;144024.69;;;9.80;92.74
5877;BME280;2964;42.144;24.730;2023-02-28T00:54:51;143989.53;;;9.65;93.97
5877;BME280;2964;42.144;24.730;2023-02-28T00:57:18;144138.94;;;10.27;91.78
5877;BME280;2964;42.144;24.730;2023-02-28T00:59:44;144088.72;;;10.06;91.26
5877;BME280;2964;42.144;24.730;2023-02-28T01:02:11;144008.38;;;9.73;93.30
5877;BME280;2964;42.144;24.730;2023-02-28T01:04:38;143970.72;;;9.58;94.21
5877;BME280;2964;42.144;24.730;2023-02-28T01:07:04;143985.78;;;9.64;94.34
5877;BME280;2964;42.144;24.730;2023-02-28T01:09:32;144018.41;;;9.77;94.14
5877;BME280;2964;42.144;24.730;2023-02-28T01:11:59;144013.38;;;9.75;93.63
5877;BME280;2964;42.144;24.730;2023-02-28T01:14:26;143983.28;;;9.63;94.12
5877;BME280;2964;42.144;24.730;2023-02-28T01:16:52;143941.84;;;9.46;94.04
5877;BME280;2964;42.144;24.730;2023-02-28T01:19:19;143980.75;;;9.62;94.13
5877;BME280;2964;42.144;24.730;2023-02-28T01:21:46;144007.13;;;9.73;94.01
5877;BME280;2964;42.144;24.730;2023-02-28T01:24:12;144086.19;;;10.05;92.07
5877;BME280;2964;42.144;24.730;2023-02-28T01:26:40;144077.44;;;10.01;92.70
5877;BME280;2964;42.144;24.730;2023-02-28T01:29:07;144064.88;;;9.96;92.09
5877;BME280;2964;42.144;24.730;2023-02-28T01:31:34;144094.97;;;10.09;90.62
5877;BME280;2964;42.144;24.730;2023-02-28T01:34:01;144078.69;;;10.02;91.53
5877;BME280;2964;42.144;24.730;2023-02-28T01:36:28;144041.00;;;9.86;91.46
5877;BME280;2964;42.144;24.730;2023-02-28T01:38:55;144079.94;;;10.02;91.53
5877;BME280;2964;42.144;24.730;2023-02-28T01:41:24;144038.50;;;9.85;92.09
5877;BME280;2964;42.144;24.730;2023-02-28T01:44:02;144033.50;;;9.83;92.70
5877;BME280;2964;42.144;24.730;2023-02-28T01:46:30;144019.69;;;9.78;93.17
5877;BME280;2964;42.144;24.730;2023-02-28T01:49:03;144034.75;;;9.84;92.90
5877;BME280;2964;42.144;24.730;2023-02-28T01:51:35;144064.88;;;9.96;92.44
5877;BME280;2964;42.144;24.730;2023-02-28T01:54:07;144018.41;;;9.77;93.03
5877;BME280;2964;42.144;24.730;2023-02-28T01:56:42;144030.97;;;9.82;93.28
5877;BME280;2964;42.144;24.730;2023-02-28T01:59:12;144089.97;;;10.07;92.42
5877;BME280;2964;42.144;24.730;2023-02-28T02:01:41;144123.88;;;10.20;91.66
5877;BME280;2964;42.144;24.730;2023-02-28T02:04:08;144213.13;;;10.57;90.40
5877;BME280;2964;42.144;24.730;2023-02-28T02:06:38;144292.22;;;10.89;87.19
5877;BME280;2964;42.144;24.730;2023-02-28T02:09:06;144275.88;;;10.82;87.61
5877;BME280;2964;42.144;24.730;2023-02-28T02:11:34;144294.75;;;10.90;87.02
5877;BME280;2964;42.144;24.730;2023-02-28T02:14:22;144313.59;;;10.98;85.70
5877;BME280;2964;42.144;24.730;2023-02-28T02:17:05;144211.81;;;10.56;85.58
5877;BME280;2964;42.144;24.730;2023-02-28T02:19:53;144195.53;;;10.50;86.08
5877;BME280;2964;42.144;24.730;2023-02-28T02:25:34;144105.06;;;10.13;87.75
5877;BME280;2964;42.144;24.730;2023-02-28T02:28:46;144120.13;;;10.19;88.19
5877;BME280;2964;42.144;24.730;2023-02-28T02:31:41;144039.75;;;9.86;89.27
5877;BME280;2964;42.144;24.730;2023-02-28T02:34:42;144086.19;;;10.05;89.77
5877;BME280;2964;42.144;24.730;2023-02-28T02:37:19;144111.31;;;10.15;89.90
5877;BME280;2964;42.144;24.730;2023-02-28T02:39:53;144098.75;;;10.10;89.42
5877;BME280;2964;42.144;24.730;2023-02-28T02:42:25;144081.16;;;10.03;89.66
5877;BME280;2964;42.144;24.730;2023-02-28T02:44:58;144087.47;;;10.05;89.66
5877;BME280;2964;42.144;24.730;2023-02-28T02:47:29;144106.31;;;10.13;90.14
5877;BME280;2964;42.144;24.730;2023-02-28T02:50:02;144081.16;;;10.03;91.76
5877;BME280;2964;42.144;24.730;2023-02-28T02:52:43;144126.38;;;10.21;90.96
5877;BME280;2964;42.144;24.730;2023-02-28T02:55:12;144130.16;;;10.23;90.83
5877;BME280;2964;42.144;24.730;2023-02-28T02:57:43;144063.59;;;9.96;91.75
5877;BME280;2964;42.144;24.730;2023-02-28T03:00:14;144125.13;;;10.21;92.11
5877;BME280;2964;42.144;24.730;2023-02-28T03:02:43;144113.84;;;10.16;93.20
5877;BME280;2964;42.144;24.730;2023-02-28T03:05:18;144108.78;;;10.14;93.09
5877;BME280;2964;42.144;24.730;2023-02-28T03:07:46;144088.72;;;10.06;94.69
5877;BME280;2964;42.144;24.730;2023-02-28T03:10:29;144116.34;;;10.17;94.50
5877;BME280;2964;42.144;24.730;2023-02-28T03:13:03;144131.41;;;10.23;94.54
5877;BME280;2964;42.144;24.730;2023-02-28T03:15:41;144116.34;;;10.17;95.23
5877;BME280;2964;42.144;24.730;2023-02-28T03:18:18;144147.72;;;10.30;95.27
5877;BME280;2964;42.144;24.730;2023-02-28T03:20:56;144118.88;;;10.18;95.84
5877;BME280;2964;42.144;24.730;2023-02-28T03:23:30;144089.97;;;10.07;97.65
5877;BME280;2964;42.144;24.730;2023-02-28T03:26:04;144113.84;;;10.16;97.25
5877;BME280;2964;42.144;24.730;2023-02-28T03:28:37;144053.56;;;9.92;98.34
5877;BME280;2964;42.144;24.730;2023-02-28T03:31:13;144072.38;;;9.99;98.87
5877;BME280;2964;42.144;24.730;2023-02-28T03:33:44;144051.06;;;9.91;99.25
5877;BME280;2964;42.144;24.730;2023-02-28T03:36:24;144049.78;;;9.90;99.92
5877;BME280;2964;42.144;24.730;2023-02-28T03:38:55;144076.16;;;10.01;99.12
5877;BME280;2964;42.144;24.730;2023-02-28T03:41:31;144042.28;;;9.87;99.78
5877;BME280;2964;42.144;24.730;2023-02-28T03:44:05;144028.47;;;9.81;100.00
5877;BME280;2964;42.144;24.730;2023-02-28T03:46:36;144038.50;;;9.85;100.00
5877;BME280;2964;42.144;24.730;2023-02-28T03:49:08;144044.75;;;9.88;100.00
5877;BME280;2964;42.144;24.730;2023-02-28T03:51:41;144022.16;;;9.79;100.00
5877;BME280;2964;42.144;24.730;2023-02-28T03:54:12;144005.88;;;9.72;100.00
5877;BME280;2964;42.144;24.730;2023-02-28T03:56:46;144032.19;;;9.83;100.00
5877;BME280;2964;42.144;24.730;2023-02-28T03:59:18;144002.09;;;9.71;100.00
5877;BME280;2964;42.144;24.730;2023-02-28T04:01:48;144018.41;;;9.77;100.00
5877;BME280;2964;42.144;24.730;2023-02-28T04:04:17;144005.88;;;9.72;100.00
5877;BME280;2964;42.144;24.730;2023-02-28T04:06:45;143994.56;;;9.68;100.00
5877;BME280;2964;42.144;24.730;2023-02-28T04:09:15;143959.41;;;9.53;100.00
5877;BME280;2964;42.144;24.730;2023-02-28T04:11:44;143993.31;;;9.67;100.00
5877;BME280;2964;42.144;24.730;2023-02-28T04:14:12;144035.97;;;9.84;100.00
5877;BME280;2964;42.144;24.730;2023-02-28T04:16:41;144022.16;;;9.79;100.00
5877;BME280;2964;42.144;24.730;2023-02-28T04:19:09;144029.72;;;9.82;100.00
5877;BME280;2964;42.144;24.730;2023-02-28T04:21:38;143995.81;;;9.68;100.00
5877;BME280;2964;42.144;24.730;2023-02-28T04:24:08;144019.69;;;9.78;100.00
5877;BME280;2964;42.144;24.730;2023-02-28T04:26:40;143974.50;;;9.59;100.00
5877;BME280;2964;42.144;24.730;2023-02-28T04:29:09;143975.75;;;9.60;100.00
5877;BME280;2964;42.144;24.730;2023-02-28T04:31:37;143980.75;;;9.62;100.00
5877;BME280;2964;42.144;24.730;2023-02-28T04:34:04;143965.72;;;9.56;100.00
5877;BME280;2964;42.144;24.730;2023-02-28T04:36:31;143965.72;;;9.56;100.00
5877;BME280;2964;42.144;24.730;2023-02-28T04:38:57;143921.78;;;9.38;100.00
5877;BME280;2964;42.144;24.730;2023-02-28T04:41:25;143978.28;;;9.61;100.00
5877;BME280;2964;42.144;24.730;2023-02-28T04:43:52;143970.72;;;9.58;100.00
5877;BME280;2964;42.144;24.730;2023-02-28T04:46:19;143920.53;;;9.37;100.00
5877;BME280;2964;42.144;24.730;2023-02-28T04:48:46;143958.16;;;9.53;100.00
5877;BME280;2964;42.144;24.730;2023-02-28T04:51:15;143955.69;;;9.52;100.00
5877;BME280;2964;42.144;24.730;2023-02-28T04:53:43;143948.13;;;9.49;100.00
5877;BME280;2964;42.144;24.730;2023-02-28T04:56:11;143925.53;;;9.39;100.00
5877;BME280;2964;42.144;24.730;2023-02-28T04:58:40;143958.16;;;9.53;100.00
5877;BME280;2964;42.144;24.730;2023-02-28T05:01:17;143948.13;;;9.49;100.00
5877;BME280;2964;42.144;24.730;2023-02-28T05:03:44;143987.00;;;9.64;100.00
5877;BME280;2964;42.144;24.730;2023-02-28T05:06:11;143980.75;;;9.62;99.77
5877;BME280;2964;42.144;24.730;2023-02-28T05:08:39;143990.78;;;9.66;99.67
5877;BME280;2964;42.144;24.730;2023-02-28T05:11:07;143993.31;;;9.67;99.63
5877;BME280;2964;42.144;24.730;2023-02-28T05:13:40;143955.69;;;9.52;99.60
5877;BME280;2964;42.144;24.730;2023-02-28T05:16:07;143960.69;;;9.54;100.00
5877;BME280;2964;42.144;24.730;2023-02-28T05:18:34;143963.19;;;9.55;99.42
5877;BME280;2964;42.144;24.730;2023-02-28T05:21:00;143984.53;;;9.63;98.91
5877;BME280;2964;42.144;24.730;2023-02-28T05:23:27;143949.38;;;9.49;99.74
5877;BME280;2964;42.144;24.730;2023-02-28T05:25:54;143935.56;;;9.43;99.70
5877;BME280;2964;42.144;24.730;2023-02-28T05:28:21;143926.78;;;9.40;99.80
5877;BME280;2964;42.144;24.730;2023-02-28T05:30:49;143920.53;;;9.37;99.66
5877;BME280;2964;42.144;24.730;2023-02-28T05:33:16;143931.81;;;9.42;99.78
5877;BME280;2964;42.144;24.730;2023-02-28T05:35:43;143948.13;;;9.49;99.63
5877;BME280;2964;42.144;24.730;2023-02-28T05:38:09;143946.91;;;9.48;98.96
5877;BME280;2964;42.144;24.730;2023-02-28T05:40:38;143958.16;;;9.53;98.92
5877;BME280;2964;42.144;24.730;2023-02-28T05:43:05;143946.91;;;9.48;99.07
5877;BME280;2964;42.144;24.730;2023-02-28T05:45:32;143955.69;;;9.52;98.81
5877;BME280;2964;42.144;24.730;2023-02-28T05:48:00;143968.19;;;9.57;98.09
5877;BME280;2964;42.144;24.730;2023-02-28T05:50:27;143950.63;;;9.50;98.50
5877;BME280;2964;42.144;24.730;2023-02-28T05:52:53;143959.41;;;9.53;98.58
5877;BME280;2964;42.144;24.730;2023-02-28T05:55:20;143931.81;;;9.42;98.89
5877;BME280;2964;42.144;24.730;2023-02-28T05:57:47;143923.00;;;9.38;98.84
5877;BME280;2964;42.144;24.730;2023-02-28T06:00:14;143915.53;;;9.35;99.10
5877;BME280;2964;42.144;24.730;2023-02-28T06:02:43;143945.59;;;9.47;98.94
5877;BME280;2964;42.144;24.730;2023-02-28T06:05:14;143992.06;;;9.66;98.18
5877;BME280;2964;42.144;24.730;2023-02-28T06:07:41;143983.28;;;9.63;97.39
5877;BME280;2964;42.144;24.730;2023-02-28T06:10:09;143960.69;;;9.54;97.62
5877;BME280;2964;42.144;24.730;2023-02-28T06:12:36;144002.09;;;9.71;97.59
5877;BME280;2964;42.144;24.730;2023-02-28T06:15:04;143955.69;;;9.52;98.11
5877;BME280;2964;42.144;24.730;2023-02-28T06:17:30;143969.47;;;9.57;97.97
5877;BME280;2964;42.144;24.730;2023-02-28T06:19:57;143915.53;;;9.35;98.13
5877;BME280;2964;42.144;24.730;2023-02-28T06:22:26;144013.38;;;9.75;97.13
5877;BME280;2964;42.144;24.730;2023-02-28T06:24:52;143938.09;;;9.44;97.05
5877;BME280;2964;42.144;24.730;2023-02-28T06:27:20;144043.53;;;9.88;96.59
5877;BME280;2964;42.144;24.730;2023-02-28T06:29:47;143987.00;;;9.64;96.80
5877;BME280;2964;42.144;24.730;2023-02-28T06:32:14;144037.25;;;9.85;96.73
5877;BME280;2964;42.144;24.730;2023-02-28T06:34:40;144030.97;;;9.82;96.26
5877;BME280;2964;42.144;24.730;2023-02-28T06:37:07;144024.69;;;9.80;96.74
5877;BME280;2964;42.144;24.730;2023-02-28T06:39:35;144024.69;;;9.80;96.18
5877;BME280;2964;42.144;24.730;2023-02-28T06:42:02;144044.75;;;9.88;96.31
5877;BME280;2964;42.144;24.730;2023-02-28T06:44:28;144049.78;;;9.90;96.02
5877;BME280;2964;42.144;24.730;2023-02-28T06:47:00;144010.91;;;9.74;96.59
5877;BME280;2964;42.144;24.730;2023-02-28T06:49:27;143993.31;;;9.67;97.29
5877;BME280;2964;42.144;24.730;2023-02-28T06:51:54;143990.78;;;9.66;96.93
5877;BME280;2964;42.144;24.730;2023-02-28T06:54:21;144010.91;;;9.74;96.97
5877;BME280;2964;42.144;24.730;2023-02-28T06:56:49;144010.91;;;9.74;96.98
5877;BME280;2964;42.144;24.730;2023-02-28T06:59:16;143989.53;;;9.65;97.04
5877;BME280;2964;42.144;24.730;2023-02-28T07:01:43;143995.81;;;9.68;97.30
5877;BME280;2964;42.144;24.730;2023-02-28T07:04:09;144018.41;;;9.77;97.04
5877;BME280;2964;42.144;24.730;2023-02-28T07:06:36;144019.69;;;9.78;96.77
5877;BME280;2964;42.144;24.730;2023-02-28T07:09:03;144035.97;;;9.84;96.59
5877;BME280;2964;42.144;24.730;2023-02-28T07:11:30;143994.56;;;9.68;97.00
5877;BME280;2964;42.144;24.730;2023-02-28T07:13:58;143994.56;;;9.68;97.32
5877;BME280;2964;42.144;24.730;2023-02-28T07:16:25;144020.94;;;9.78;96.89
5877;BME280;2964;42.144;24.730;2023-02-28T07:18:53;143987.00;;;9.64;97.27
5877;BME280;2964;42.144;24.730;2023-02-28T07:21:21;143968.19;;;9.57;97.58
5877;BME280;2964;42.144;24.730;2023-02-28T07:23:47;143973.22;;;9.59;98.03
5877;BME280;2964;42.144;24.730;2023-02-28T07:26:16;143990.78;;;9.66;97.04
5877;BME280;2964;42.144;24.730;2023-02-28T07:28:44;144044.75;;;9.88;96.40
5877;BME280;2964;42.144;24.730;2023-02-28T07:31:14;144044.75;;;9.88;96.13
5877;BME280;2964;42.144;24.730;2023-02-28T07:33:41;144010.91;;;9.74;96.30
5877;BME280;2964;42.144;24.730;2023-02-28T07:36:10;143950.63;;;9.50;97.21
5877;BME280;2964;42.144;24.730;2023-02-28T07:38:41;143975.75;;;9.60;97.65
5877;BME280;2964;42.144;24.730;2023-02-28T07:41:08;143975.75;;;9.60;96.71
5877;BME280;2964;42.144;24.730;2023-02-28T07:43:35;143945.59;;;9.47;97.31
5877;BME280;2964;42.144;24.730;2023-02-28T07:46:03;143990.78;;;9.66;97.51
5877;BME280;2964;42.144;24.730;2023-02-28T07:48:31;144008.38;;;9.73;96.62
5877;BME280;2964;42.144;24.730;2023-02-28T07:50:59;143993.31;;;9.67;96.82
5877;BME280;2964;42.144;24.730;2023-02-28T07:53:26;143995.81;;;9.68;97.32
5877;BME280;2964;42.144;24.730;2023-02-28T07:55:55;144003.34;;;9.71;96.49
5877;BME280;2964;42.144;24.730;2023-02-28T07:58:22;143974.50;;;9.59;97.15
5877;BME280;2964;42.144;24.730;2023-02-28T08:00:48;143907.97;;;9.32;97.93
5877;BME280;2964;42.144;24.730;2023-02-28T08:03:16;143920.53;;;9.37;98.40
5877;BME280;2964;42.144;24.730;2023-02-28T08:05:44;143965.72;;;9.56;98.11
5877;BME280;2964;42.144;24.730;2023-02-28T08:08:11;143880.38;;;9.21;97.80
5877;BME280;2964;42.144;24.730;2023-02-28T08:10:37;143948.13;;;9.49;98.61
5877;BME280;2964;42.144;24.730;2023-02-28T08:13:04;143943.13;;;9.46;98.65
5877;BME280;2964;42.144;24.730;2023-02-28T08:15:31;143965.72;;;9.56;98.49
5877;BME280;2964;42.144;24.730;2023-02-28T08:17:57;144003.34;;;9.71;97.96
5877;BME280;2964;42.144;24.730;2023-02-28T08:20:25;144010.91;;;9.74;97.47
5877;BME280;2964;42.144;24.730;2023-02-28T08:22:53;144005.88;;;9.72;97.24
5877;BME280;2964;42.144;24.730;2023-02-28T08:25:20;143948.13;;;9.49;97.62
5877;BME280;2964;42.144;24.730;2023-02-28T08:27:47;143935.56;;;9.43;98.95
5877;BME280;2964;42.144;24.730;2023-02-28T08:30:14;143802.59;;;8.89;98.90
5877;BME280;2964;42.144;24.730;2023-02-28T08:32:41;143948.13;;;9.49;99.28
5877;BME280;2964;42.144;24.730;2023-02-28T08:35:09;143993.31;;;9.67;98.41
5877;BME280;2964;42.144;24.730;2023-02-28T08:37:35;143963.19;;;9.55;98.51
5877;BME280;2964;42.144;24.730;2023-02-28T08:40:05;143964.44;;;9.55;98.50
5877;BME280;2964;42.144;24.730;2023-02-28T08:42:32;143905.44;;;9.31;98.77
5877;BME280;2964;42.144;24.730;2023-02-28T08:44:59;143975.75;;;9.60;98.45
5877;BME280;2964;42.144;24.730;2023-02-28T08:47:25;143965.72;;;9.56;98.71
5877;BME280;2964;42.144;24.730;2023-02-28T08:49:52;144013.38;;;9.75;98.08
5877;BME280;2964;42.144;24.730;2023-02-28T08:52:19;144047.28;;;9.89;97.53
5877;BME280;2964;42.144;24.730;2023-02-28T08:54:46;144039.75;;;9.86;97.20
5877;BME280;2964;42.144;24.730;2023-02-28T08:57:14;144037.25;;;9.85;96.52
5877;BME280;2964;42.144;24.730;2023-02-28T08:59:41;144092.50;;;10.08;96.20
5877;BME280;2964;42.144;24.730;2023-02-28T09:02:09;144094.97;;;10.09;95.64
5877;BME280;2964;42.144;24.730;2023-02-28T09:04:36;144081.16;;;10.03;95.73
5877;BME280;2964;42.144;24.730;2023-02-28T09:07:02;144073.66;;;10.00;96.46
5877;BME280;2964;42.144;24.730;2023-02-28T09:09:29;144121.34;;;10.19;95.86
5877;BME280;2964;42.144;24.730;2023-02-28T09:11:56;144176.66;;;10.42;94.80
5877;BME280;2964;42.144;24.730;2023-02-28T09:14:24;144154.03;;;10.33;94.29
5877;BME280;2964;42.144;24.730;2023-02-28T09:16:51;144214.34;;;10.57;93.24
5877;BME280;2964;42.144;24.730;2023-02-28T09:19:18;144194.22;;;10.49;93.28
5877;BME280;2964;42.144;24.730;2023-02-28T09:21:44;144073.66;;;10.00;95.63
5877;BME280;2964;42.144;24.730;2023-02-28T09:24:11;143983.28;;;9.63;97.07
5877;BME280;2964;42.144;24.730;2023-02-28T09:26:40;143938.09;;;9.44;98.80
5877;BME280;2964;42.144;24.730;2023-02-28T09:29:07;144030.97;;;9.82;97.66
5877;BME280;2964;42.144;24.730;2023-02-28T09:31:35;144096.28;;;10.09;96.14
5877;BME280;2964;42.144;24.730;2023-02-28T09:34:04;143992.06;;;9.66;96.98
5877;BME280;2964;42.144;24.730;2023-02-28T09:36:31;144054.78;;;9.92;96.52
5877;BME280;2964;42.144;24.730;2023-02-28T09:38:58;144087.47;;;10.05;95.84
5877;BME280;2964;42.144;24.730;2023-02-28T09:41:26;144041.00;;;9.86;96.07
5877;BME280;2964;42.144;24.730;2023-02-28T09:43:58;143968.19;;;9.57;97.61
5877;BME280;2964;42.144;24.730;2023-02-28T09:46:32;144023.47;;;9.79;97.38
5877;BME280;2964;42.144;24.730;2023-02-28T09:49:04;144076.16;;;10.01;96.84
5877;BME280;2964;42.144;24.730;2023-02-28T09:51:40;144091.25;;;10.07;95.57
5877;BME280;2964;42.144;24.730;2023-02-28T09:54:13;144086.19;;;10.05;95.98
5877;BME280;2964;42.144;24.730;2023-02-28T09:56:47;144093.75;;;10.08;96.05
5877;BME280;2964;42.144;24.730;2023-02-28T09:59:25;144121.34;;;10.19;95.38
5877;BME280;2964;42.144;24.730;2023-02-28T10:01:59;144076.16;;;10.01;95.50
5877;BME280;2964;42.144;24.730;2023-02-28T10:04:40;144118.88;;;10.18;95.83
5877;BME280;2964;42.144;24.730;2023-02-28T10:07:17;143966.94;;;9.56;97.23
5877;BME280;2964;42.144;24.730;2023-02-28T10:09:50;143929.31;;;9.41;98.19
5877;BME280;2964;42.144;24.730;2023-02-28T10:12:19;143964.44;;;9.55;98.74
5877;BME280;2964;42.144;24.730;2023-02-28T10:14:47;143989.53;;;9.65;98.33
5877;BME280;2964;42.144;24.730;2023-02-28T10:17:18;144020.94;;;9.78;97.72
5877;BME280;2964;42.144;24.730;2023-02-28T10:19:56;144020.94;;;9.78;97.84
5877;BME280;2964;42.144;24.730;2023-02-28T10:22:28;144115.09;;;10.17;96.84
5877;BME280;2964;42.144;24.730;2023-02-28T10:24:58;144048.53;;;9.90;96.48
5877;BME280;2964;42.144;24.730;2023-02-28T10:27:30;144038.50;;;9.85;97.04
5877;BME280;2964;42.144;24.730;2023-02-28T10:29:58;144108.78;;;10.14;96.89
5877;BME280;2964;42.144;24.730;2023-02-28T10:32:27;144238.22;;;10.67;94.10
5877;BME280;2964;42.144;24.730;2023-02-28T10:34:59;144194.22;;;10.49;93.57
5877;BME280;2964;42.144;24.730;2023-02-28T10:37:26;144020.94;;;9.78;97.00
5877;BME280;2964;42.144;24.730;2023-02-28T10:39:53;144052.31;;;9.91;96.74
5877;BME280;2964;42.144;24.730;2023-02-28T10:42:23;144044.75;;;9.88;96.89
5877;BME280;2964;42.144;24.730;2023-02-28T10:45:05;143973.22;;;9.59;97.96
5877;BME280;2964;42.144;24.730;2023-02-28T10:47:33;144012.13;;;9.75;98.56
5877;BME280;2964;42.144;24.730;2023-02-28T10:50:04;144033.50;;;9.83;98.46
5877;BME280;2964;42.144;24.730;2023-02-28T10:52:37;144017.16;;;9.77;97.13
5877;BME280;2964;42.144;24.730;2023-02-28T10:55:19;144088.72;;;10.06;96.71
5877;BME280;2964;42.144;24.730;2023-02-28T10:57:47;144028.47;;;9.81;96.66
5877;BME280;2964;42.144;24.730;2023-02-28T11:00:16;144005.88;;;9.72;97.46
5877;BME280;2964;42.144;24.730;2023-02-28T11:02:44;143944.38;;;9.47;98.19
5877;BME280;2964;42.144;24.730;2023-02-28T11:05:27;143973.22;;;9.59;98.98
5877;BME280;2964;42.144;24.730;2023-02-28T11:07:56;143980.75;;;9.62;98.45
5877;BME280;2964;42.144;24.730;2023-02-28T11:10:26;143971.97;;;9.58;98.52
5877;BME280;2964;42.144;24.730;2023-02-28T11:12:55;143978.28;;;9.61;98.39
5877;BME280;2964;42.144;24.730;2023-02-28T11:15:24;143963.19;;;9.55;98.50
5877;BME280;2964;42.144;24.730;2023-02-28T11:17:56;143934.34;;;9.43;99.33
5877;BME280;2964;42.144;24.730;2023-02-28T11:20:28;143958.16;;;9.53;99.22
5877;BME280;2964;42.144;24.730;2023-02-28T11:22:57;143978.28;;;9.61;99.19
5877;BME280;2964;42.144;24.730;2023-02-28T11:25:27;143990.78;;;9.66;98.52
5877;BME280;2964;42.144;24.730;2023-02-28T11:27:58;143940.59;;;9.45;99.22
5877;BME280;2964;42.144;24.730;2023-02-28T11:30:30;143895.41;;;9.27;100.00
5877;BME280;2964;42.144;24.730;2023-02-28T11:32:58;143902.97;;;9.30;100.00
5877;BME280;2964;42.144;24.730;2023-02-28T11:35:30;143924.31;;;9.39;100.00
5877;BME280;2964;42.144;24.730;2023-02-28T11:37:58;143961.94;;;9.54;100.00
5877;BME280;2964;42.144;24.730;2023-02-28T11:40:31;143920.53;;;9.37;100.00
5877;BME280;2964;42.144;24.730;2023-02-28T11:43:06;143792.53;;;8.85;100.00
5877;BME280;2964;42.144;24.730;2023-02-28T11:45:43;143902.97;;;9.30;100.00
5877;BME280;2964;42.144;24.730;2023-02-28T11:48:18;143845.25;;;9.06;100.00
5877;BME280;2964;42.144;24.730;2023-02-28T11:50:56;143749.91;;;8.67;100.00
5877;BME280;2964;42.144;24.730;2023-02-28T11:53:38;143807.63;;;8.91;100.00
5877;BME280;2964;42.144;24.730;2023-02-28T11:56:11;143810.09;;;8.92;100.00
5877;BME280;2964;42.144;24.730;2023-02-28T11:58:50;143830.19;;;9.00;100.00
5877;BME280;2964;42.144;24.730;2023-02-28T12:01:50;143795.06;;;8.86;100.00
5877;BME280;2964;42.144;24.730;2023-02-28T12:04:25;143708.53;;;8.50;100.00
5877;BME280;2964;42.144;24.730;2023-02-28T12:07:07;143734.88;;;8.61;100.00
5877;BME280;2964;42.144;24.730;2023-02-28T12:09:45;143728.59;;;8.59;100.00
5877;BME280;2964;42.144;24.730;2023-02-28T12:12:22;143712.31;;;8.52;100.00
5877;BME280;2964;42.144;24.730;2023-02-28T12:15:32;143683.41;;;8.40;100.00
5877;BME280;2964;42.144;24.730;2023-02-28T12:18:17;143692.22;;;8.44;100.00
5877;BME280;2964;42.144;24.730;2023-02-28T12:20:53;143707.25;;;8.50;100.00
5877;BME280;2964;42.144;24.730;2023-02-28T12:26:31;143693.47;;;8.44;100.00
5877;BME280;2964;42.144;24.730;2023-02-28T12:29:04;143709.78;;;8.51;100.00
5877;BME280;2964;42.144;24.730;2023-02-28T12:31:36;143709.78;;;8.51;100.00
5877;BME280;2964;42.144;24.730;2023-02-28T12:34:06;143694.75;;;8.45;100.00
5877;BME280;2964;42.144;24.730;2023-02-28T12:36:36;143736.13;;;8.62;100.00
5877;BME280;2964;42.144;24.730;2023-02-28T12:39:08;143716.03;;;8.54;100.00
5877;BME280;2964;42.144;24.730;2023-02-28T12:41:41;143693.47;;;8.44;100.00
5877;BME280;2964;42.144;24.730;2023-02-28T12:44:13;143692.22;;;8.44;100.00
5877;BME280;2964;42.144;24.730;2023-02-28T12:46:44;143697.22;;;8.46;100.00
5877;BME280;2964;42.144;24.730;2023-02-28T12:49:17;143692.22;;;8.44;100.00
5877;BME280;2964;42.144;24.730;2023-02-28T12:51:45;143737.38;;;8.62;100.00
5877;BME280;2964;42.144;24.730;2023-02-28T12:54:21;143737.38;;;8.62;100.00
5877;BME280;2964;42.144;24.730;2023-02-28T12:56:54;143732.34;;;8.60;100.00
5877;BME280;2964;42.144;24.730;2023-02-28T12:59:27;143764.94;;;8.74;100.00
5877;BME280;2964;42.144;24.730;2023-02-28T13:02:13;143777.50;;;8.79;100.00
5877;BME280;2964;42.144;24.730;2023-02-28T13:05:06;143787.53;;;8.83;100.00
5877;BME280;2964;42.144;24.730;2023-02-28T13:10:40;143807.63;;;8.91;100.00
5877;BME280;2964;42.144;24.730;2023-02-28T13:13:14;143806.34;;;8.91;100.00
5877;BME280;2964;42.144;24.730;2023-02-28T13:15:57;143805.09;;;8.90;100.00
5877;BME280;2964;42.144;24.730;2023-02-28T13:18:30;143792.53;;;8.85;100.00
5877;BME280;2964;42.144;24.730;2023-02-28T13:20:58;143777.50;;;8.79;100.00
5877;BME280;2964;42.144;24.730;2023-02-28T13:24:00;143795.06;;;8.86;100.00
5877;BME280;2964;42.144;24.730;2023-02-28T13:29:36;143749.91;;;8.67;100.00
5877;BME280;2964;42.144;24.730;2023-02-28T13:35:43;143723.56;;;8.57;100.00
5877;BME280;2964;42.144;24.730;2023-02-28T13:38:35;143753.69;;;8.69;100.00